Time;durP1;ratioP1;P1;durP2;ratioP2;P2;SDS_P1;SDS_P2;PMS_P1;PMS_P2;Temp;Humidity;BMP_temperature;BMP_pressure;BME280_temperature;BME280_humidity;BME280_pressure;Samples;Min_cycle;Max_cycle;Signal;HPM_P1;HPM_P2
2023/05/24 00:00:28;;;;;;;20.58;4.20;;;11.60;99.90;;;;;;5066248;28;20048;-58
2023/05/24 00:02:56;;;;;;;17.63;4.00;;;11.60;99.90;;;;;;5049299;28;20068;-57
2023/05/24 00:05:25;;;;;;;12.57;3.05;;;11.60;99.90;;;;;;5049935;28;20060;-58
2023/05/24 00:07:53;;;;;;;20.08;5.65;;;11.60;99.90;;;;;;5054580;28;20056;-58
2023/05/24 00:10:21;;;;;;;16.40;4.20;;;11.50;99.90;;;;;;5067091;28;20444;-58
2023/05/24 00:12:49;;;;;;;13.32;4.25;;;11.50;99.90;;;;;;5066481;28;20064;-57
2023/05/24 00:15:17;;;;;;;17.38;4.18;;;11.50;99.90;;;;;;5049315;28;20319;-57
2023/05/24 00:17:45;;;;;;;13.70;4.63;;;11.50;99.90;;;;;;5072616;28;20047;-55
2023/05/24 00:20:13;;;;;;;18.35;4.10;;;11.50;99.90;;;;;;5079396;28;20060;-56
2023/05/24 00:22:41;;;;;;;18.38;3.97;;;11.50;99.90;;;;;;5063475;28;20055;-58
2023/05/24 00:25:09;;;;;;;20.30;4.55;;;11.40;99.90;;;;;;5071615;28;20052;-59
2023/05/24 00:27:37;;;;;;;17.00;4.00;;;11.40;99.90;;;;;;5056512;28;20041;-56
2023/05/24 00:30:06;;;;;;;25.05;4.97;;;11.40;99.90;;;;;;5059233;28;20249;-57
2023/05/24 00:32:34;;;;;;;18.50;4.57;;;11.30;99.90;;;;;;5056598;28;20048;-57
2023/05/24 00:35:03;;;;;;;21.40;5.50;;;11.30;99.90;;;;;;5061233;28;20499;-57
2023/05/24 00:37:32;;;;;;;24.30;5.50;;;11.30;99.90;;;;;;5051204;28;20040;-57
2023/05/24 00:39:59;;;;;;;24.20;5.32;;;11.30;99.90;;;;;;5061626;28;20447;-57
2023/05/24 00:42:27;;;;;;;19.75;5.38;;;11.30;99.90;;;;;;5047989;28;20103;-56
2023/05/24 00:44:55;;;;;;;20.38;5.30;;;11.30;99.90;;;;;;5063140;28;20052;-57
2023/05/24 00:47:23;;;;;;;18.90;6.03;;;11.20;99.90;;;;;;5071014;28;20529;-57
2023/05/24 00:49:51;;;;;;;15.32;4.97;;;11.20;99.90;;;;;;5063453;28;20045;-57
2023/05/24 00:52:20;;;;;;;18.75;5.25;;;11.20;99.90;;;;;;5055602;28;20079;-57
2023/05/24 00:54:48;;;;;;;15.77;4.93;;;11.10;99.90;;;;;;5067001;28;20048;-58
2023/05/24 00:57:17;;;;;;;19.85;5.47;;;11.10;99.90;;;;;;5061445;28;20040;-57
2023/05/24 00:59:45;;;;;;;14.70;5.15;;;11.10;99.90;;;;;;5066265;28;20067;-55
2023/05/24 01:02:13;;;;;;;16.92;4.78;;;11.00;99.90;;;;;;5064717;28;20400;-60
2023/05/24 01:04:41;;;;;;;17.15;4.28;;;11.00;99.90;;;;;;5062485;28;20045;-59
2023/05/24 01:07:26;;;;;;;15.20;5.95;;;11.00;99.90;;;;;;5054655;28;20567;-58
2023/05/24 01:10:13;;;;;;;15.93;4.88;;;11.00;99.90;;;;;;5072303;28;20051;-57
2023/05/24 01:13:09;;;;;;;18.27;5.00;;;11.00;99.90;;;;;;5059654;28;20054;-57
2023/05/24 01:15:43;;;;;;;21.75;5.15;;;10.90;99.90;;;;;;5029541;28;20045;-57
2023/05/24 01:18:20;;;;;;;16.05;5.10;;;10.90;99.90;;;;;;5051791;28;20033;-57
2023/05/24 01:21:12;;;;;;;12.90;4.82;;;10.90;99.90;;;;;;5047304;28;20049;-56
2023/05/24 01:23:53;;;;;;;26.10;6.93;;;10.90;99.90;;;;;;5064916;28;20518;-56
2023/05/24 01:26:38;;;;;;;21.67;5.20;;;10.90;99.90;;;;;;5066492;28;20055;-57
2023/05/24 01:29:10;;;;;;;26.48;5.72;;;10.90;99.90;;;;;;5057761;28;20040;-57
2023/05/24 01:31:37;;;;;;;19.95;5.47;;;10.90;99.90;;;;;;5056385;28;20056;-57
2023/05/24 01:34:05;;;;;;;31.60;5.10;;;10.90;99.90;;;;;;5065304;28;20060;-57
2023/05/24 01:36:53;;;;;;;23.17;6.22;;;10.80;99.90;;;;;;5058917;28;20489;-57
2023/05/24 01:39:25;;;;;;;16.70;4.07;;;10.80;99.90;;;;;;5070652;28;20488;-57
2023/05/24 01:42:24;;;;;;;26.05;5.85;;;10.80;99.90;;;;;;5070043;28;20053;-56
2023/05/24 01:45:53;;;;;;;19.98;4.95;;;10.80;99.90;;;;;;5060852;28;20036;-57
2023/05/24 01:48:42;;;;;;;21.30;5.55;;;10.70;99.90;;;;;;4984897;28;20042;-57
2023/05/24 01:51:17;;;;;;;21.13;5.35;;;10.70;99.90;;;;;;5057626;28;20048;-57
2023/05/24 01:53:47;;;;;;;19.60;4.88;;;10.60;99.90;;;;;;5060756;28;20056;-56
2023/05/24 01:56:18;;;;;;;21.65;5.30;;;10.60;99.90;;;;;;5056123;28;20783;-55
2023/05/24 01:58:47;;;;;;;15.32;5.07;;;10.60;99.90;;;;;;5066885;28;20045;-57
2023/05/24 02:01:15;;;;;;;17.23;5.07;;;10.60;99.90;;;;;;5058831;28;20037;-57
2023/05/24 02:03:44;;;;;;;20.67;5.13;;;10.60;99.90;;;;;;5074401;28;20053;-58
2023/05/24 02:06:13;;;;;;;16.85;4.38;;;10.50;99.90;;;;;;5072976;28;20048;-58
2023/05/24 02:08:41;;;;;;;16.75;5.65;;;10.50;99.90;;;;;;5073741;28;20048;-57
2023/05/24 02:11:08;;;;;;;15.25;5.07;;;10.50;99.90;;;;;;5051387;28;20053;-58
2023/05/24 02:13:38;;;;;;;18.30;5.40;;;10.50;99.90;;;;;;5070870;28;20051;-58
2023/05/24 02:16:06;;;;;;;23.42;5.30;;;10.50;99.90;;;;;;5072949;28;20135;-58
2023/05/24 02:18:34;;;;;;;21.33;4.60;;;10.40;99.90;;;;;;5076260;28;20040;-59
2023/05/24 02:21:02;;;;;;;25.75;5.80;;;10.40;99.90;;;;;;5052857;28;20207;-57
2023/05/24 02:23:30;;;;;;;24.70;6.03;;;10.40;99.90;;;;;;5064944;28;20047;-58
2023/05/24 02:26:00;;;;;;;18.03;4.73;;;10.40;99.90;;;;;;5074921;28;20049;-57
2023/05/24 02:28:30;;;;;;;13.50;4.55;;;10.40;99.90;;;;;;5061908;28;20476;-57
2023/05/24 02:30:59;;;;;;;23.48;5.75;;;10.40;99.90;;;;;;5069786;28;20503;-57
2023/05/24 02:33:28;;;;;;;20.85;6.00;;;10.30;99.90;;;;;;5073948;28;20044;-57
2023/05/24 02:35:56;;;;;;;20.13;5.03;;;10.30;99.90;;;;;;5071060;28;20060;-57
2023/05/24 02:38:24;;;;;;;23.90;5.40;;;10.30;99.90;;;;;;5065287;28;20056;-59
2023/05/24 02:40:52;;;;;;;17.45;4.50;;;10.30;99.90;;;;;;5064168;28;20048;-58
2023/05/24 02:43:19;;;;;;;25.88;5.15;;;10.30;99.90;;;;;;5064893;28;20044;-57
2023/05/24 02:45:47;;;;;;;27.85;8.75;;;10.30;99.90;;;;;;5061371;28;20407;-58
2023/05/24 02:48:15;;;;;;;15.85;5.47;;;10.20;99.90;;;;;;5086807;28;20048;-56
2023/05/24 02:50:43;;;;;;;19.98;5.78;;;10.30;99.90;;;;;;5072570;28;20048;-57
2023/05/24 02:53:11;;;;;;;17.02;5.20;;;10.20;99.90;;;;;;5067158;28;20487;-58
2023/05/24 02:55:42;;;;;;;16.50;5.78;;;10.20;99.90;;;;;;5069446;28;20043;-56
2023/05/24 02:58:12;;;;;;;19.05;5.75;;;10.20;99.90;;;;;;5072900;28;20057;-58
2023/05/24 03:00:41;;;;;;;29.15;6.38;;;;;;;;;;5070723;28;20051;-56
2023/05/24 03:03:09;;;;;;;21.20;5.85;;;10.10;99.90;;;;;;5068641;28;20059;-57
2023/05/24 03:05:37;;;;;;;16.15;5.60;;;10.10;99.90;;;;;;5057542;28;20045;-56
2023/05/24 03:08:05;;;;;;;22.70;5.80;;;10.10;99.90;;;;;;5056845;28;20396;-57
2023/05/24 03:10:33;;;;;;;17.27;6.20;;;10.10;99.90;;;;;;5068203;28;20037;-56
2023/05/24 03:13:01;;;;;;;19.20;5.55;;;10.10;99.90;;;;;;5062018;28;20049;-55
2023/05/24 03:15:29;;;;;;;19.55;5.82;;;10.00;99.90;;;;;;5069122;28;20056;-57
2023/05/24 03:17:57;;;;;;;21.20;6.05;;;10.00;99.90;;;;;;5073931;28;20147;-57
2023/05/24 03:20:26;;;;;;;20.60;5.93;;;10.00;99.90;;;;;;5069509;28;20045;-57
2023/05/24 03:22:54;;;;;;;16.05;5.80;;;10.00;99.90;;;;;;5067649;28;20601;-57
2023/05/24 03:25:22;;;;;;;17.23;5.18;;;9.90;99.90;;;;;;5069812;28;20052;-57
2023/05/24 03:27:51;;;;;;;26.08;5.80;;;9.90;99.90;;;;;;5069219;28;20040;-56
2023/05/24 03:30:20;;;;;;;18.10;6.82;;;9.90;99.90;;;;;;5059308;28;20546;-56
2023/05/24 03:32:53;;;;;;;21.55;5.75;;;9.80;99.90;;;;;;5058675;28;20492;-57
2023/05/24 03:35:21;;;;;;;13.20;5.82;;;9.80;99.90;;;;;;5060109;28;20049;-56
2023/05/24 03:37:49;;;;;;;17.00;4.72;;;9.80;99.90;;;;;;5050575;28;20374;-56
2023/05/24 03:40:18;;;;;;;23.17;6.10;;;9.80;99.90;;;;;;5061897;28;20041;-57
2023/05/24 03:42:53;;;;;;;22.65;6.38;;;9.80;99.90;;;;;;5060415;28;20048;-56
2023/05/24 03:45:31;;;;;;;22.85;5.80;;;9.80;99.90;;;;;;5071051;28;20063;-57
2023/05/24 03:48:06;;;;;;;12.82;5.85;;;9.70;99.90;;;;;;5075436;28;20047;-56
2023/05/24 03:50:34;;;;;;;25.88;6.63;;;9.70;99.90;;;;;;5067064;28;20047;-56
2023/05/24 03:53:02;;;;;;;18.23;5.97;;;9.70;99.90;;;;;;5052353;28;20048;-56
2023/05/24 03:55:30;;;;;;;26.67;7.45;;;9.70;99.90;;;;;;5071765;28;20059;-57
2023/05/24 03:57:58;;;;;;;17.77;5.85;;;9.70;99.90;;;;;;5054402;28;20048;-57
2023/05/24 04:00:26;;;;;;;13.95;5.60;;;9.60;99.90;;;;;;5058951;28;20507;-57
2023/05/24 04:02:55;;;;;;;18.55;5.88;;;9.60;99.90;;;;;;5067978;28;20522;-56
2023/05/24 04:05:25;;;;;;;22.65;7.15;;;9.60;99.90;;;;;;5067108;28;20479;-56
2023/05/24 04:07:54;;;;;;;22.65;6.18;;;9.60;99.90;;;;;;5068364;28;20044;-57
2023/05/24 04:10:22;;;;;;;14.55;5.85;;;9.60;99.90;;;;;;5071069;28;20041;-56
2023/05/24 04:12:50;;;;;;;15.45;5.18;;;9.60;99.90;;;;;;5069807;28;20071;-57
2023/05/24 04:15:18;;;;;;;20.27;5.30;;;9.60;99.90;;;;;;5067935;28;20783;-56
2023/05/24 04:17:46;;;;;;;15.85;5.85;;;9.60;99.90;;;;;;5085097;28;20063;-57
2023/05/24 04:20:15;;;;;;;;;;;9.60;99.90;;;;;;5072143;28;20048;-57
2023/05/24 04:22:43;;;;;;;17.20;5.57;;;9.60;99.90;;;;;;5066248;28;19927;-57
2023/05/24 04:25:11;;;;;;;24.48;6.00;;;9.50;99.90;;;;;;5069070;28;20052;-57
2023/05/24 04:27:39;;;;;;;22.02;6.00;;;9.50;99.90;;;;;;5050309;28;20045;-55
2023/05/24 04:30:09;;;;;;;16.42;5.32;;;9.50;99.90;;;;;;5064327;28;20040;-56
2023/05/24 04:32:37;;;;;;;25.88;6.03;;;9.50;99.90;;;;;;5069538;28;20047;-55
2023/05/24 04:35:06;;;;;;;20.15;5.50;;;9.50;99.90;;;;;;5069913;28;20044;-57
2023/05/24 04:37:33;;;;;;;16.95;5.72;;;9.50;99.90;;;;;;5052201;28;20045;-56
2023/05/24 04:40:05;;;;;;;23.33;6.03;;;9.50;99.90;;;;;;5057251;28;20032;-57
2023/05/24 04:42:33;;;;;;;26.13;6.10;;;9.50;99.90;;;;;;5071374;28;20487;-57
2023/05/24 04:45:01;;;;;;;16.02;5.63;;;9.50;99.90;;;;;;5067298;28;20485;-57
2023/05/24 04:47:30;;;;;;;21.30;6.32;;;9.50;99.90;;;;;;5057732;28;20495;-57
2023/05/24 04:49:58;;;;;;;20.67;6.40;;;9.60;99.90;;;;;;5051491;28;20055;-56
2023/05/24 04:52:26;;;;;;;17.70;6.18;;;9.60;99.90;;;;;;5065989;28;20045;-57
2023/05/24 04:54:54;;;;;;;25.92;5.68;;;9.60;99.90;;;;;;5063061;28;20040;-56
2023/05/24 04:57:22;;;;;;;18.13;5.05;;;9.60;99.90;;;;;;5067223;28;20059;-57
2023/05/24 04:59:50;;;;;;;18.25;4.80;;;9.60;99.90;;;;;;5071856;28;20056;-57
2023/05/24 05:02:17;;;;;;;21.00;5.10;;;9.60;99.90;;;;;;5052434;28;20048;-57
2023/05/24 05:04:45;;;;;;;25.73;4.82;;;9.70;99.90;;;;;;5055801;28;20055;-57
2023/05/24 05:07:13;;;;;;;13.98;4.15;;;9.60;99.90;;;;;;5058251;28;20495;-57
2023/05/24 05:09:41;;;;;;;21.80;5.45;;;9.70;99.90;;;;;;5061761;28;20055;-57
2023/05/24 05:12:09;;;;;;;23.85;5.22;;;9.70;99.90;;;;;;5056990;28;20044;-57
2023/05/24 05:14:36;;;;;;;22.63;5.47;;;9.70;99.90;;;;;;5058534;28;20417;-57
2023/05/24 05:17:04;;;;;;;25.35;5.55;;;9.70;99.90;;;;;;5070113;28;20048;-56
2023/05/24 05:19:32;;;;;;;18.75;5.00;;;9.80;99.90;;;;;;5065617;28;20045;-57
2023/05/24 05:22:00;;;;;;;21.08;5.70;;;9.70;99.90;;;;;;5048419;28;20052;-57
2023/05/24 05:24:28;;;;;;;20.85;4.53;;;9.70;99.90;;;;;;5064901;28;20364;-56
2023/05/24 05:26:56;;;;;;;13.20;4.53;;;9.80;99.90;;;;;;5057048;28;20048;-56
2023/05/24 05:29:24;;;;;;;23.88;5.65;;;9.90;99.90;;;;;;5067516;28;20052;-56
2023/05/24 05:31:52;;;;;;;17.58;5.40;;;9.90;99.90;;;;;;5058966;28;20051;-56
2023/05/24 05:34:20;;;;;;;19.30;6.10;;;9.90;99.90;;;;;;5065988;28;20040;-56
2023/05/24 05:36:48;;;;;;;18.08;6.18;;;9.90;99.90;;;;;;5063440;28;20043;-56
2023/05/24 05:39:16;;;;;;;18.15;4.90;;;10.00;99.90;;;;;;5064002;28;20037;-57
2023/05/24 05:41:44;;;;;;;14.68;4.90;;;10.00;99.90;;;;;;5056160;28;20048;-57
2023/05/24 05:44:13;;;;;;;15.25;5.03;;;10.80;99.90;;;;;;5066134;28;20044;-57
2023/05/24 05:46:44;;;;;;;26.15;6.43;;;10.20;99.90;;;;;;5065640;28;20048;-57
2023/05/24 05:49:14;;;;;;;19.75;4.60;;;10.20;99.90;;;;;;5067899;28;20511;-56
2023/05/24 05:51:42;;;;;;;14.47;4.57;;;10.30;99.90;;;;;;5062891;28;20514;-57
2023/05/24 05:54:14;;;;;;;16.98;4.88;;;;;;;;;;5058273;28;20240;-57
2023/05/24 05:56:46;;;;;;;17.98;4.68;;;10.30;99.90;;;;;;5062810;28;20059;-55
2023/05/24 05:59:14;;;;;;;24.08;5.70;;;10.40;99.90;;;;;;5067673;28;20048;-57
2023/05/24 06:01:45;;;;;;;22.75;5.03;;;10.50;99.90;;;;;;5068087;28;20411;-57
2023/05/24 06:04:14;;;;;;;15.70;4.82;;;10.50;99.90;;;;;;5060837;28;20045;-56
2023/05/24 06:06:48;;;;;;;18.27;4.20;;;10.60;99.90;;;;;;5063860;28;20246;-57
2023/05/24 06:09:16;;;;;;;11.48;4.32;;;10.60;99.90;;;;;;5052319;28;20428;-56
2023/05/24 06:11:44;;;;;;;25.27;7.32;;;10.70;99.90;;;;;;5058865;28;20503;-56
2023/05/24 06:14:20;;;;;;;23.50;4.68;;;10.70;99.90;;;;;;5059376;28;20049;-56
2023/05/24 06:16:48;;;;;;;23.70;5.20;;;10.80;99.90;;;;;;5041700;28;20056;-57
2023/05/24 06:19:17;;;;;;;15.00;4.63;;;10.80;99.90;;;;;;5059762;28;20041;-57
2023/05/24 06:21:46;;;;;;;17.20;4.40;;;10.90;99.90;;;;;;5058692;28;20048;-57
2023/05/24 06:24:21;;;;;;;21.52;6.30;;;10.90;99.90;;;;;;5066251;28;20380;-54
2023/05/24 06:26:51;;;;;;;18.70;4.40;;;11.00;99.90;;;;;;5060612;28;20052;-57
2023/05/24 06:29:20;;;;;;;17.35;4.55;;;11.00;99.90;;;;;;5064074;28;20041;-56
2023/05/24 06:31:48;;;;;;;17.73;5.13;;;11.10;99.90;;;;;;5052330;28;20044;-57
2023/05/24 06:34:20;;;;;;;18.15;5.20;;;11.20;99.90;;;;;;5060312;28;20761;-56
2023/05/24 06:36:49;;;;;;;14.60;5.15;;;11.20;99.90;;;;;;5067064;28;20037;-56
2023/05/24 06:39:19;;;;;;;16.27;4.88;;;11.20;99.90;;;;;;5064593;28;20052;-58
2023/05/24 06:41:50;;;;;;;16.48;4.72;;;11.30;99.90;;;;;;5055438;28;20049;-57
2023/05/24 06:44:30;;;;;;;14.57;4.55;;;11.40;99.90;;;;;;5061673;28;20037;-56
2023/05/24 06:46:58;;;;;;;14.00;5.15;;;11.50;99.90;;;;;;5060505;28;20791;-57
2023/05/24 06:49:30;;;;;;;13.63;4.35;;;11.50;99.90;;;;;;5069043;28;20040;-57
2023/05/24 06:51:58;;;;;;;13.65;4.00;;;11.50;99.90;;;;;;5051903;28;20511;-56
2023/05/24 06:54:25;;;;;;;21.45;4.65;;;11.60;99.90;;;;;;5061388;28;20571;-57
2023/05/24 06:56:54;;;;;;;13.80;3.92;;;11.60;99.90;;;;;;5068075;28;20059;-56
2023/05/24 06:59:22;;;;;;;22.45;6.28;;;11.70;99.90;;;;;;5052340;28;20063;-56
2023/05/24 07:01:56;;;;;;;15.10;4.32;;;11.80;99.90;;;;;;5065668;28;20048;-54
2023/05/24 07:04:27;;;;;;;18.73;5.63;;;11.80;99.90;;;;;;5057321;28;20056;-55
2023/05/24 07:06:56;;;;;;;12.50;4.77;;;11.90;99.90;;;;;;5047557;28;20052;-56
2023/05/24 07:09:24;;;;;;;19.85;5.63;;;11.90;99.90;;;;;;5068643;28;20496;-57
2023/05/24 07:11:52;;;;;;;10.18;4.70;;;12.00;99.90;;;;;;5063150;28;20059;-57
2023/05/24 07:14:21;;;;;;;23.20;5.03;;;12.10;99.90;;;;;;5062243;28;21014;-56
2023/05/24 07:16:49;;;;;;;12.05;4.22;;;12.20;99.90;;;;;;5069211;28;20067;-56
2023/05/24 07:19:17;;;;;;;12.10;4.35;;;12.30;99.90;;;;;;5052766;28;20459;-56
2023/05/24 07:21:45;;;;;;;20.92;5.43;;;12.40;99.90;;;;;;5059517;28;20060;-56
2023/05/24 07:24:13;;;;;;;14.50;5.43;;;12.60;99.90;;;;;;5058017;28;20044;-57
2023/05/24 07:26:43;;;;;;;12.68;4.63;;;12.80;99.90;;;;;;5049919;28;20052;-57
2023/05/24 07:29:14;;;;;;;11.57;4.60;;;13.10;99.90;;;;;;5063902;28;20053;-56
2023/05/24 07:31:42;;;;;;;9.75;4.57;;;13.40;99.90;;;;;;5048598;28;20049;-57
2023/05/24 07:34:11;;;;;;;23.40;5.53;;;13.60;99.90;;;;;;5064085;28;20052;-59
2023/05/24 07:36:39;;;;;;;11.60;4.07;;;13.80;99.90;;;;;;5066507;28;20404;-56
2023/05/24 07:39:14;;;;;;;17.42;5.03;;;14.00;99.90;;;;;;5060315;28;21646;-56
2023/05/24 07:41:42;;;;;;;17.08;4.82;;;14.00;99.90;;;;;;5055783;28;20048;-56
2023/05/24 07:44:13;;;;;;;11.48;4.55;;;14.10;99.90;;;;;;5059834;28;20744;-57
2023/05/24 07:46:41;;;;;;;12.05;4.82;;;14.10;99.90;;;;;;5072699;28;20036;-56
2023/05/24 07:49:09;;;;;;;13.68;4.47;;;14.00;99.90;;;;;;5062569;28;20492;-56
2023/05/24 07:51:37;;;;;;;15.00;4.47;;;14.10;99.90;;;;;;5058779;28;20040;-56
2023/05/24 07:54:06;;;;;;;14.25;4.32;;;14.00;99.90;;;;;;5068058;28;20341;-57
2023/05/24 07:56:34;;;;;;;16.05;4.10;;;13.90;99.90;;;;;;5057680;28;20404;-57
2023/05/24 07:59:03;;;;;;;11.70;3.25;;;13.80;99.90;;;;;;5061133;28;20067;-57
2023/05/24 08:01:33;;;;;;;15.50;4.38;;;13.50;99.90;;;;;;5059070;28;20255;-57
2023/05/24 08:04:02;;;;;;;18.30;5.18;;;13.60;99.90;;;;;;5068182;28;20052;-56
2023/05/24 08:06:31;;;;;;;;;;;13.50;99.90;;;;;;5066145;28;20036;-57
2023/05/24 08:09:00;;;;;;;12.77;3.88;;;13.50;99.90;;;;;;5074989;28;19932;-56
2023/05/24 08:11:28;;;;;;;14.18;3.33;;;13.50;99.90;;;;;;5055953;28;20075;-56
2023/05/24 08:13:56;;;;;;;9.93;3.90;;;13.60;99.90;;;;;;5057749;28;20059;-56
2023/05/24 08:16:24;;;;;;;12.13;3.50;;;13.70;99.90;;;;;;5068155;28;20487;-57
2023/05/24 08:18:53;;;;;;;10.32;3.83;;;13.80;99.90;;;;;;5058657;28;20045;-57
2023/05/24 08:21:22;;;;;;;10.32;3.40;;;14.00;99.90;;;;;;5060282;28;20044;-57
2023/05/24 08:23:50;;;;;;;11.05;3.90;;;14.10;99.90;;;;;;5068133;28;20510;-57
2023/05/24 08:26:19;;;;;;;20.33;5.20;;;13.90;99.90;;;;;;5061566;28;20511;-57
2023/05/24 08:28:47;;;;;;;10.93;3.00;;;14.20;99.90;;;;;;5059513;28;20485;-56
2023/05/24 08:31:15;;;;;;;8.27;3.40;;;14.20;99.90;;;;;;5065490;28;20130;-56
2023/05/24 08:33:44;;;;;;;12.25;4.15;;;14.30;99.90;;;;;;5063930;28;20055;-56
2023/05/24 08:36:16;;;;;;;14.32;4.38;;;14.30;99.90;;;;;;5064804;28;20499;-57
2023/05/24 08:38:44;;;;;;;13.45;3.70;;;14.30;99.90;;;;;;5052879;28;20504;-56
2023/05/24 08:41:11;;;;;;;10.10;3.90;;;14.40;99.90;;;;;;5064405;28;20052;-59
2023/05/24 08:43:41;;;;;;;17.17;4.07;;;14.50;99.90;;;;;;5056370;28;20282;-57
2023/05/24 08:46:10;;;;;;;13.02;3.50;;;14.50;99.90;;;;;;5061638;28;20048;-57
2023/05/24 08:48:47;;;;;;;14.85;4.28;;;14.60;99.90;;;;;;5062295;28;20045;-56
2023/05/24 08:51:16;;;;;;;14.50;5.97;;;14.80;99.90;;;;;;5054158;28;20045;-57
2023/05/24 08:53:47;;;;;;;14.20;4.05;;;14.80;99.90;;;;;;5057740;28;20040;-57
2023/05/24 08:56:17;;;;;;;9.27;3.33;;;14.80;99.90;;;;;;5063409;28;20048;-57
2023/05/24 08:58:45;;;;;;;10.93;3.90;;;14.90;99.90;;;;;;5052926;28;20512;-57
2023/05/24 09:01:15;;;;;;;9.63;3.67;;;14.90;99.90;;;;;;5056639;28;20036;-59
2023/05/24 09:03:47;;;;;;;17.42;4.07;;;14.90;99.90;;;;;;5060634;28;20045;-55
2023/05/24 09:06:17;;;;;;;10.70;3.45;;;15.10;99.90;;;;;;5062158;28;20043;-58
2023/05/24 09:08:45;;;;;;;11.13;3.75;;;15.10;99.90;;;;;;5062309;28;20064;-57
2023/05/24 09:11:15;;;;;;;13.52;3.65;;;15.20;99.90;;;;;;5064728;28;20432;-59
2023/05/24 09:13:44;;;;;;;15.27;3.63;;;15.30;99.90;;;;;;5056203;28;20041;-58
2023/05/24 09:16:13;;;;;;;11.85;4.45;;;15.30;99.90;;;;;;5064445;28;20052;-58
2023/05/24 09:18:42;;;;;;;9.57;3.35;;;15.40;99.90;;;;;;5064553;28;20039;-56
2023/05/24 09:21:13;;;;;;;17.55;4.35;;;15.50;99.90;;;;;;5065317;28;20356;-56
2023/05/24 09:23:42;;;;;;;10.45;3.88;;;15.60;99.90;;;;;;5062434;28;20056;-59
2023/05/24 09:26:12;;;;;;;15.55;4.50;;;15.70;99.90;;;;;;5058580;28;20353;-56
2023/05/24 09:28:44;;;;;;;11.93;3.70;;;15.80;99.90;;;;;;5055827;28;20045;-57
2023/05/24 09:31:12;;;;;;;13.32;3.60;;;15.80;99.90;;;;;;5062947;28;20063;-58
2023/05/24 09:33:47;;;;;;;10.18;3.97;;;15.90;99.90;;;;;;5060661;28;20044;-56
2023/05/24 09:36:16;;;;;;;14.00;3.75;;;16.00;99.90;;;;;;5050993;28;20473;-57
2023/05/24 09:38:44;;;;;;;11.52;3.53;;;16.10;99.90;;;;;;5059788;28;20044;-59
2023/05/24 09:41:11;;;;;;;14.23;4.40;;;16.20;99.90;;;;;;5065590;28;20111;-57
2023/05/24 09:43:48;;;;;;;7.25;3.40;;;16.30;99.90;;;;;;5059052;28;20064;-58
2023/05/24 09:46:18;;;;;;;10.68;4.18;;;16.40;99.90;;;;;;5063542;28;20055;-58
2023/05/24 09:48:59;;;;;;;14.20;5.15;;;16.50;99.90;;;;;;5062795;28;20052;-58
2023/05/24 09:51:26;;;;;;;14.00;4.13;;;16.60;99.90;;;;;;5062848;28;20045;-58
2023/05/24 09:54:01;;;;;;;11.68;4.40;;;16.80;99.90;;;;;;5065796;28;20491;-59
2023/05/24 09:56:31;;;;;;;9.90;3.90;;;17.00;99.90;;;;;;5059392;28;20064;-58
2023/05/24 09:59:08;;;;;;;14.52;4.40;;;17.20;99.90;;;;;;5061042;28;20407;-59
2023/05/24 10:01:38;;;;;;;13.15;4.28;;;17.40;99.90;;;;;;5051992;28;20040;-58
2023/05/24 10:04:06;;;;;;;11.48;4.22;;;17.50;99.90;;;;;;5060382;28;20060;-58
2023/05/24 10:06:41;;;;;;;10.45;3.85;;;17.70;99.90;;;;;;5066595;28;20052;-57
2023/05/24 10:09:12;;;;;;;9.73;4.53;;;17.60;99.90;;;;;;5056451;28;20511;-58
2023/05/24 10:11:43;;;;;;;12.07;4.03;;;17.70;99.90;;;;;;5050195;28;20044;-57
2023/05/24 10:14:11;;;;;;;11.50;4.30;;;17.80;99.90;;;;;;5055446;28;20049;-56
2023/05/24 10:16:39;;;;;;;10.00;3.53;;;17.90;99.90;;;;;;5067969;28;20411;-56
2023/05/24 10:19:07;;;;;;;11.55;4.22;;;18.00;99.90;;;;;;5079986;28;20411;-57
2023/05/24 10:21:39;;;;;;;15.07;4.40;;;18.10;99.90;;;;;;5068615;28;20041;-56
2023/05/24 10:24:10;;;;;;;14.90;4.90;;;18.10;99.90;;;;;;5060629;28;20403;-57
2023/05/24 10:26:38;;;;;;;14.35;4.05;;;18.20;99.90;;;;;;5065199;28;20036;-58
2023/05/24 10:29:13;;;;;;;11.80;3.63;;;18.30;99.90;;;;;;5066465;28;20435;-57
2023/05/24 10:31:43;;;;;;;14.02;4.85;;;18.40;99.90;;;;;;5067274;28;20033;-57
2023/05/24 10:34:11;;;;;;;;;;;18.50;99.90;;;;;;5063515;28;20052;-57
2023/05/24 10:36:39;;;;;;;13.77;3.28;;;18.50;99.90;;;;;;5063488;28;19920;-57
2023/05/24 10:39:12;;;;;;;11.00;3.38;;;18.60;99.90;;;;;;5067073;28;20469;-57
2023/05/24 10:41:43;;;;;;;12.35;3.70;;;18.70;99.90;;;;;;5059947;28;20037;-57
2023/05/24 10:44:12;;;;;;;10.10;3.35;;;18.80;99.90;;;;;;5068366;28;20055;-58
2023/05/24 10:47:10;;;;;;;7.15;3.17;;;19.00;99.90;;;;;;5071987;28;20040;-57
2023/05/24 10:49:51;;;;;;;18.00;3.97;;;19.00;99.90;;;;;;5059407;28;20045;-57
2023/05/24 10:52:20;;;;;;;13.75;3.20;;;19.10;99.90;;;;;;5066654;28;20052;-57
2023/05/24 10:55:08;;;;;;;13.05;3.42;;;19.20;99.90;;;;;;5065094;28;20052;-58
2023/05/24 10:57:39;;;;;;;10.98;3.70;;;19.20;99.90;;;;;;5066201;28;20040;-58
2023/05/24 11:00:21;;;;;;;10.32;3.15;;;19.20;99.90;;;;;;5059406;28;20058;-57
2023/05/24 11:03:09;;;;;;;15.00;4.03;;;19.20;99.90;;;;;;5062061;28;20891;-59
2023/05/24 11:05:46;;;;;;;16.13;4.15;;;19.40;99.90;;;;;;5070635;28;20045;-57
2023/05/24 11:08:22;;;;;;;13.77;4.00;;;19.40;99.90;;;;;;5066314;28;20047;-57
2023/05/24 11:11:10;;;;;;;9.63;3.10;;;19.50;99.90;;;;;;5066810;28;20048;-57
2023/05/24 11:13:42;;;;;;;11.30;3.28;;;19.80;99.90;;;;;;5056550;28;20480;-58
2023/05/24 11:16:36;;;;;;;13.18;3.42;;;19.80;99.90;;;;;;5061096;28;20044;-57
2023/05/24 11:19:33;;;;;;;17.63;4.03;;;20.00;99.90;;;;;;5063622;28;20048;-57
2023/05/24 11:22:03;;;;;;;12.30;4.13;;;20.00;99.90;;;;;;5065727;28;20044;-56
2023/05/24 11:24:31;;;;;;;10.27;4.40;;;20.00;99.90;;;;;;5066626;28;20045;-58
2023/05/24 11:27:02;;;;;;;17.27;5.18;;;20.00;99.90;;;;;;5068091;28;20479;-57
2023/05/24 11:29:30;;;;;;;20.00;4.40;;;20.00;99.90;;;;;;5067265;28;20507;-57
2023/05/24 11:32:06;;;;;;;15.80;4.15;;;20.10;99.90;;;;;;5051687;28;20044;-57
2023/05/24 11:34:34;;;;;;;10.48;4.35;;;20.20;99.90;;;;;;5057034;28;20052;-57
2023/05/24 11:37:04;;;;;;;14.50;4.22;;;20.20;99.90;;;;;;5057217;28;20381;-57
2023/05/24 11:39:35;;;;;;;12.30;4.82;;;20.30;99.90;;;;;;5066987;28;20068;-56
2023/05/24 11:42:05;;;;;;;10.23;3.25;;;20.40;99.90;;;;;;5064779;28;20044;-57
2023/05/24 11:44:36;;;;;;;11.45;3.47;;;20.70;99.90;;;;;;5063149;28;20048;-58
2023/05/24 11:47:08;;;;;;;9.15;3.72;;;21.00;99.90;;;;;;5064296;28;20522;-55
2023/05/24 11:49:37;;;;;;;15.55;3.30;;;21.20;99.90;;;;;;5056844;28;20075;-59
2023/05/24 11:52:06;;;;;;;14.27;3.47;;;21.40;99.90;;;;;;5051237;28;20037;-58
2023/05/24 11:54:36;;;;;;;9.23;2.40;;;21.60;99.50;;;;;;5067438;28;20048;-58
2023/05/24 11:57:04;;;;;;;15.48;2.75;;;21.80;98.00;;;;;;5068034;28;20396;-59
2023/05/24 11:59:34;;;;;;;10.02;2.65;;;22.10;98.20;;;;;;5062707;28;20052;-57
2023/05/24 12:02:05;;;;;;;9.32;2.53;;;22.30;97.30;;;;;;5055078;28;20044;-59
2023/05/24 12:04:33;;;;;;;14.20;3.30;;;22.50;96.40;;;;;;5066256;28;20048;-58
2023/05/24 12:07:02;;;;;;;21.88;3.40;;;22.60;95.40;;;;;;5066972;28;20040;-58
2023/05/24 12:09:30;;;;;;;12.27;3.13;;;22.60;95.60;;;;;;5065471;28;20498;-58
2023/05/24 12:11:57;;;;;;;14.02;2.63;;;22.60;95.10;;;;;;5067229;28;20048;-58
2023/05/24 12:14:31;;;;;;;16.15;3.28;;;22.40;94.20;;;;;;5062622;28;20052;-58
2023/05/24 12:17:00;;;;;;;16.58;4.40;;;22.50;93.50;;;;;;5070360;28;20056;-57
2023/05/24 12:19:34;;;;;;;15.90;3.40;;;22.30;92.80;;;;;;5053037;28;20048;-58
2023/05/24 12:22:05;;;;;;;14.88;3.22;;;22.20;94.10;;;;;;5065218;28;20055;-57
2023/05/24 12:24:36;;;;;;;8.45;2.80;;;22.10;94.30;;;;;;5068996;28;20044;-57
2023/05/24 12:27:08;;;;;;;11.13;2.70;;;22.20;94.40;;;;;;5050449;28;20041;-57
2023/05/24 12:29:39;;;;;;;12.88;2.88;;;22.20;93.80;;;;;;5061740;28;20519;-57
2023/05/24 12:32:12;;;;;;;14.38;3.38;;;22.30;93.30;;;;;;5067284;28;20040;-58
2023/05/24 12:34:43;;;;;;;17.25;3.42;;;22.40;93.60;;;;;;5065188;28;20041;-57
2023/05/24 12:37:11;;;;;;;15.45;3.70;;;23.00;92.80;;;;;;5065435;28;20487;-57
2023/05/24 12:39:41;;;;;;;15.32;3.15;;;23.00;93.00;;;;;;5064746;28;20040;-57
2023/05/24 12:42:12;;;;;;;13.43;3.72;;;23.50;92.60;;;;;;5066843;28;20044;-58
2023/05/24 12:44:41;;;;;;;15.23;3.40;;;23.70;89.60;;;;;;5064319;28;20395;-57
2023/05/24 12:47:09;;;;;;;17.20;3.28;;;23.70;90.20;;;;;;5063626;28;20067;-57
2023/05/24 12:49:39;;;;;;;16.33;3.53;;;23.80;90.30;;;;;;5058096;28;20040;-57
2023/05/24 12:52:07;;;;;;;15.23;3.30;;;24.00;91.00;;;;;;5057941;28;20048;-57
2023/05/24 12:54:35;;;;;;;13.85;3.35;;;24.20;89.80;;;;;;5060707;28;20044;-58
2023/05/24 12:57:03;;;;;;;15.05;4.28;;;24.40;88.50;;;;;;5057993;28;20045;-58